sensor_id;sensor_type;location;lat;lon;timestamp;pressure;altitude;pressure_sealevel;temperature;humidity
37848;BME280;23688;33.130;-117.188;2023-01-30T00:00:54;99215.25;;;10.91;100.00
37848;BME280;23688;33.130;-117.188;2023-01-30T00:03:21;99223.00;;;10.89;100.00
37848;BME280;23688;33.130;-117.188;2023-01-30T00:05:48;99226.44;;;10.88;100.00
37848;BME280;23688;33.130;-117.188;2023-01-30T00:08:15;99223.84;;;10.88;100.00
37848;BME280;23688;33.130;-117.188;2023-01-30T00:10:44;99229.81;;;10.86;100.00
37848;BME280;23688;33.130;-117.188;2023-01-30T00:13:13;99227.38;;;10.66;100.00
37848;BME280;23688;33.130;-117.188;2023-01-30T00:15:40;99233.69;;;10.73;100.00
37848;BME280;23688;33.130;-117.188;2023-01-30T00:18:07;99232.84;;;10.74;100.00
37848;BME280;23688;33.130;-117.188;2023-01-30T00:20:33;99232.72;;;10.71;100.00
37848;BME280;23688;33.130;-117.188;2023-01-30T00:22:59;99229.97;;;10.66;100.00
37848;BME280;23688;33.130;-117.188;2023-01-30T00:25:26;99239.34;;;10.63;100.00
37848;BME280;23688;33.130;-117.188;2023-01-30T00:27:54;99239.06;;;10.55;100.00
37848;BME280;23688;33.130;-117.188;2023-01-30T00:30:21;99233.81;;;10.54;100.00
37848;BME280;23688;33.130;-117.188;2023-01-30T00:32:52;99220.44;;;10.43;100.00
37848;BME280;23688;33.130;-117.188;2023-01-30T00:35:18;99237.34;;;10.56;100.00
37848;BME280;23688;33.130;-117.188;2023-01-30T00:37:44;99231.00;;;10.47;100.00
37848;BME280;23688;33.130;-117.188;2023-01-30T00:40:11;99237.91;;;10.47;100.00
37848;BME280;23688;33.130;-117.188;2023-01-30T00:42:40;99246.38;;;10.43;100.00
37848;BME280;23688;33.130;-117.188;2023-01-30T00:45:25;99244.16;;;10.30;100.00
37848;BME280;23688;33.130;-117.188;2023-01-30T00:48:09;99244.66;;;10.43;100.00
37848;BME280;23688;33.130;-117.188;2023-01-30T00:50:37;99248.66;;;10.58;100.00
37848;BME280;23688;33.130;-117.188;2023-01-30T00:53:14;99249.56;;;10.36;100.00
37848;BME280;23688;33.130;-117.188;2023-01-30T00:55:41;99250.31;;;10.32;100.00
37848;BME280;23688;33.130;-117.188;2023-01-30T00:58:08;99247.50;;;10.27;100.00
37848;BME280;23688;33.130;-117.188;2023-01-30T01:00:35;99232.72;;;10.26;100.00
37848;BME280;23688;33.130;-117.188;2023-01-30T01:03:02;99240.72;;;10.31;100.00
37848;BME280;23688;33.130;-117.188;2023-01-30T01:05:28;99242.56;;;10.33;100.00
37848;BME280;23688;33.130;-117.188;2023-01-30T01:07:55;99231.88;;;10.48;100.00
37848;BME280;23688;33.130;-117.188;2023-01-30T01:10:22;99241.16;;;10.41;100.00
37848;BME280;23688;33.130;-117.188;2023-01-30T01:12:49;99237.19;;;10.28;100.00
37848;BME280;23688;33.130;-117.188;2023-01-30T01:15:16;99247.72;;;10.32;100.00
37848;BME280;23688;33.130;-117.188;2023-01-30T01:17:43;99238.69;;;10.23;100.00
37848;BME280;23688;33.130;-117.188;2023-01-30T01:20:10;99247.81;;;10.35;100.00
37848;BME280;23688;33.130;-117.188;2023-01-30T01:22:36;99249.94;;;10.45;100.00
37848;BME280;23688;33.130;-117.188;2023-01-30T01:25:03;99231.63;;;10.19;100.00
37848;BME280;23688;33.130;-117.188;2023-01-30T01:27:29;99239.94;;;10.32;99.67
37848;BME280;23688;33.130;-117.188;2023-01-30T01:29:56;99242.31;;;10.49;98.90
37848;BME280;23688;33.130;-117.188;2023-01-30T01:32:23;99246.84;;;10.55;98.04
37848;BME280;23688;33.130;-117.188;2023-01-30T01:34:49;99250.44;;;10.59;96.67
37848;BME280;23688;33.130;-117.188;2023-01-30T01:37:16;99246.78;;;10.78;96.07
37848;BME280;23688;33.130;-117.188;2023-01-30T01:39:43;99251.97;;;11.00;94.51
37848;BME280;23688;33.130;-117.188;2023-01-30T01:42:36;99237.19;;;10.99;93.89
37848;BME280;23688;33.130;-117.188;2023-01-30T01:45:23;99250.41;;;11.05;94.04
37848;BME280;23688;33.130;-117.188;2023-01-30T01:48:07;99244.63;;;11.14;92.95
37848;BME280;23688;33.130;-117.188;2023-01-30T01:50:50;99242.09;;;11.16;91.72
37848;BME280;23688;33.130;-117.188;2023-01-30T01:53:21;99246.19;;;11.09;92.02
37848;BME280;23688;33.130;-117.188;2023-01-30T01:55:51;99247.53;;;11.22;91.83
37848;BME280;23688;33.130;-117.188;2023-01-30T01:58:45;99245.97;;;11.27;91.51
37848;BME280;23688;33.130;-117.188;2023-01-30T02:01:13;99249.00;;;11.15;91.44
37848;BME280;23688;33.130;-117.188;2023-01-30T02:03:43;99248.69;;;11.06;91.37
37848;BME280;23688;33.130;-117.188;2023-01-30T02:06:11;99259.53;;;10.94;94.59
37848;BME280;23688;33.130;-117.188;2023-01-30T02:08:40;99269.44;;;10.35;100.00
37848;BME280;23688;33.130;-117.188;2023-01-30T02:11:13;99266.81;;;9.90;100.00
37848;BME280;23688;33.130;-117.188;2023-01-30T02:13:44;99276.78;;;9.60;100.00
37848;BME280;23688;33.130;-117.188;2023-01-30T02:16:10;99274.44;;;9.45;100.00
37848;BME280;23688;33.130;-117.188;2023-01-30T02:18:40;99286.81;;;9.31;100.00
37848;BME280;23688;33.130;-117.188;2023-01-30T02:24:09;99283.97;;;9.25;100.00
37848;BME280;23688;33.130;-117.188;2023-01-30T02:34:49;99290.25;;;9.11;100.00
37848;BME280;23688;33.130;-117.188;2023-01-30T02:51:10;99288.59;;;9.32;100.00
37848;BME280;23688;33.130;-117.188;2023-01-30T02:53:39;99277.06;;;9.66;100.00
37848;BME280;23688;33.130;-117.188;2023-01-30T02:56:06;99283.94;;;9.86;100.00
37848;BME280;23688;33.130;-117.188;2023-01-30T02:58:37;99267.78;;;9.94;100.00
37848;BME280;23688;33.130;-117.188;2023-01-30T03:14:10;99282.50;;;10.37;100.00
37848;BME280;23688;33.130;-117.188;2023-01-30T03:16:14;99283.31;;;10.36;100.00
37848;BME280;23688;33.130;-117.188;2023-01-30T03:18:44;99277.34;;;10.38;100.00
37848;BME280;23688;33.130;-117.188;2023-01-30T03:21:11;99270.41;;;10.37;100.00
37848;BME280;23688;33.130;-117.188;2023-01-30T03:23:38;99277.72;;;10.47;100.00
37848;BME280;23688;33.130;-117.188;2023-01-30T03:26:08;99287.38;;;10.52;100.00
37848;BME280;23688;33.130;-117.188;2023-01-30T03:28:36;99282.31;;;10.55;100.00
37848;BME280;23688;33.130;-117.188;2023-01-30T03:31:02;99282.31;;;10.55;100.00
37848;BME280;23688;33.130;-117.188;2023-01-30T03:33:29;99286.50;;;10.51;100.00
37848;BME280;23688;33.130;-117.188;2023-01-30T03:35:55;99294.59;;;10.59;100.00
37848;BME280;23688;33.130;-117.188;2023-01-30T03:38:22;99292.09;;;10.62;100.00
37848;BME280;23688;33.130;-117.188;2023-01-30T03:40:48;99298.28;;;10.65;100.00
37848;BME280;23688;33.130;-117.188;2023-01-30T03:43:14;99290.63;;;10.68;100.00
37848;BME280;23688;33.130;-117.188;2023-01-30T03:45:41;99290.72;;;10.71;100.00
37848;BME280;23688;33.130;-117.188;2023-01-30T03:48:07;99278.44;;;10.67;100.00
37848;BME280;23688;33.130;-117.188;2023-01-30T03:50:35;99290.81;;;10.73;100.00
37848;BME280;23688;33.130;-117.188;2023-01-30T03:53:01;99281.03;;;10.67;100.00
37848;BME280;23688;33.130;-117.188;2023-01-30T03:55:27;99277.66;;;10.68;100.00
37848;BME280;23688;33.130;-117.188;2023-01-30T03:57:58;99283.72;;;10.69;100.00
37848;BME280;23688;33.130;-117.188;2023-01-30T04:00:24;99294.09;;;10.69;100.00
37848;BME280;23688;33.130;-117.188;2023-01-30T04:02:50;99287.00;;;10.65;100.00
37848;BME280;23688;33.130;-117.188;2023-01-30T04:05:20;99273.03;;;10.61;100.00
37848;BME280;23688;33.130;-117.188;2023-01-30T04:07:49;99300.41;;;10.76;100.00
37848;BME280;23688;33.130;-117.188;2023-01-30T04:10:16;99292.56;;;10.74;100.00
37848;BME280;23688;33.130;-117.188;2023-01-30T04:12:45;99297.03;;;10.78;100.00
37848;BME280;23688;33.130;-117.188;2023-01-30T04:15:12;99292.66;;;10.77;100.00
37848;BME280;23688;33.130;-117.188;2023-01-30T04:17:39;99294.44;;;10.78;100.00
37848;BME280;23688;33.130;-117.188;2023-01-30T04:20:05;99302.09;;;10.75;100.00
37848;BME280;23688;33.130;-117.188;2023-01-30T04:22:32;99286.91;;;10.62;100.00
37848;BME280;23688;33.130;-117.188;2023-01-30T04:24:58;99305.25;;;10.66;100.00
37848;BME280;23688;33.130;-117.188;2023-01-30T04:27:24;99302.56;;;10.63;100.00
37848;BME280;23688;33.130;-117.188;2023-01-30T04:29:51;99305.75;;;10.56;100.00
37848;BME280;23688;33.130;-117.188;2023-01-30T04:32:17;99300.53;;;10.56;100.00
37848;BME280;23688;33.130;-117.188;2023-01-30T04:34:44;99293.47;;;10.52;100.00
37848;BME280;23688;33.130;-117.188;2023-01-30T04:37:11;99282.97;;;10.49;100.00
37848;BME280;23688;33.130;-117.188;2023-01-30T04:39:38;99285.66;;;10.52;100.00
37848;BME280;23688;33.130;-117.188;2023-01-30T04:42:04;99290.09;;;10.55;100.00
37848;BME280;23688;33.130;-117.188;2023-01-30T04:44:31;99275.19;;;10.49;100.00
37848;BME280;23688;33.130;-117.188;2023-01-30T04:46:57;99273.41;;;10.48;100.00
37848;BME280;23688;33.130;-117.188;2023-01-30T04:49:28;99286.56;;;10.53;100.00
37848;BME280;23688;33.130;-117.188;2023-01-30T04:51:54;99274.34;;;10.50;100.00
37848;BME280;23688;33.130;-117.188;2023-01-30T04:54:20;99283.06;;;10.52;100.00
37848;BME280;23688;33.130;-117.188;2023-01-30T04:56:47;99284.72;;;10.50;100.00
37848;BME280;23688;33.130;-117.188;2023-01-30T04:59:13;99283.78;;;10.48;100.00
37848;BME280;23688;33.130;-117.188;2023-01-30T05:01:39;99288.25;;;10.52;100.00
37848;BME280;23688;33.130;-117.188;2023-01-30T05:04:06;99278.47;;;10.45;100.00
37848;BME280;23688;33.130;-117.188;2023-01-30T05:06:34;99285.50;;;10.47;100.00
37848;BME280;23688;33.130;-117.188;2023-01-30T05:09:02;99269.63;;;10.40;100.00
37848;BME280;23688;33.130;-117.188;2023-01-30T05:11:29;99286.97;;;10.41;100.00
37848;BME280;23688;33.130;-117.188;2023-01-30T05:13:57;99298.28;;;10.43;100.00
37848;BME280;23688;33.130;-117.188;2023-01-30T05:16:25;99281.66;;;10.38;100.00
37848;BME280;23688;33.130;-117.188;2023-01-30T05:18:51;99286.78;;;10.36;100.00
37848;BME280;23688;33.130;-117.188;2023-01-30T05:21:23;99277.31;;;10.37;100.00
37848;BME280;23688;33.130;-117.188;2023-01-30T05:23:54;99280.72;;;10.36;100.00
37848;BME280;23688;33.130;-117.188;2023-01-30T05:26:21;99280.59;;;10.33;100.00
37848;BME280;23688;33.130;-117.188;2023-01-30T05:28:55;99276.81;;;10.24;100.00
37848;BME280;23688;33.130;-117.188;2023-01-30T05:31:22;99287.94;;;10.22;100.00
37848;BME280;23688;33.130;-117.188;2023-01-30T05:33:50;99285.09;;;10.16;100.00
37848;BME280;23688;33.130;-117.188;2023-01-30T05:36:19;99271.03;;;9.88;100.00
37848;BME280;23688;33.130;-117.188;2023-01-30T05:38:45;99283.44;;;9.74;100.00
37848;BME280;23688;33.130;-117.188;2023-01-30T05:41:13;99263.91;;;9.61;100.00
37848;BME280;23688;33.130;-117.188;2023-01-30T05:43:40;99276.50;;;9.73;100.00
37848;BME280;23688;33.130;-117.188;2023-01-30T05:46:08;99274.59;;;9.69;100.00
37848;BME280;23688;33.130;-117.188;2023-01-30T05:48:34;99278.00;;;9.68;100.00
37848;BME280;23688;33.130;-117.188;2023-01-30T05:51:02;99284.69;;;9.63;100.00
37848;BME280;23688;33.130;-117.188;2023-01-30T05:53:30;99273.31;;;9.59;100.00
37848;BME280;23688;33.130;-117.188;2023-01-30T05:56:02;99284.69;;;9.63;100.00
37848;BME280;23688;33.130;-117.188;2023-01-30T05:58:30;99275.22;;;9.63;100.00
37848;BME280;23688;33.130;-117.188;2023-01-30T06:01:05;99277.75;;;9.62;100.00
37848;BME280;23688;33.130;-117.188;2023-01-30T06:03:33;99279.66;;;9.66;100.00
37848;BME280;23688;33.130;-117.188;2023-01-30T06:06:00;99273.19;;;9.56;100.00
37848;BME280;23688;33.130;-117.188;2023-01-30T06:08:27;99283.50;;;9.55;100.00
37848;BME280;23688;33.130;-117.188;2023-01-30T06:10:54;99284.16;;;9.51;100.00
37848;BME280;23688;33.130;-117.188;2023-01-30T06:13:20;99290.25;;;9.51;100.00
37848;BME280;23688;33.130;-117.188;2023-01-30T06:15:46;99282.03;;;9.40;100.00
37848;BME280;23688;33.130;-117.188;2023-01-30T06:18:13;99292.25;;;9.37;100.00
37848;BME280;23688;33.130;-117.188;2023-01-30T06:20:39;99302.63;;;9.37;100.00
37848;BME280;23688;33.130;-117.188;2023-01-30T06:23:05;99299.97;;;9.36;100.00
37848;BME280;23688;33.130;-117.188;2023-01-30T06:25:32;99297.16;;;9.31;100.00
37848;BME280;23688;33.130;-117.188;2023-01-30T06:27:58;99299.50;;;9.25;100.00
37848;BME280;23688;33.130;-117.188;2023-01-30T06:30:24;99290.44;;;9.15;100.00
37848;BME280;23688;33.130;-117.188;2023-01-30T06:32:51;99298.22;;;9.15;100.00
37848;BME280;23688;33.130;-117.188;2023-01-30T06:35:17;99303.47;;;9.17;100.00
37848;BME280;23688;33.130;-117.188;2023-01-30T06:37:44;99314.38;;;9.10;100.00
37848;BME280;23688;33.130;-117.188;2023-01-30T06:40:11;99310.88;;;9.09;100.00
37848;BME280;23688;33.130;-117.188;2023-01-30T06:42:37;99315.25;;;9.10;100.00
37848;BME280;23688;33.130;-117.188;2023-01-30T06:45:04;99319.69;;;9.13;100.00
37848;BME280;23688;33.130;-117.188;2023-01-30T06:47:30;99303.19;;;9.11;100.00
37848;BME280;23688;33.130;-117.188;2023-01-30T06:49:56;99311.81;;;9.10;100.00
37848;BME280;23688;33.130;-117.188;2023-01-30T06:52:23;99316.97;;;9.10;100.00
37848;BME280;23688;33.130;-117.188;2023-01-30T06:54:49;99324.88;;;9.13;100.00
37848;BME280;23688;33.130;-117.188;2023-01-30T06:57:15;99325.00;;;9.16;100.00
37848;BME280;23688;33.130;-117.188;2023-01-30T06:59:41;99315.31;;;9.12;100.00
37848;BME280;23688;33.130;-117.188;2023-01-30T07:02:11;99321.53;;;9.15;100.00
37848;BME280;23688;33.130;-117.188;2023-01-30T07:04:38;99313.44;;;9.08;100.00
37848;BME280;23688;33.130;-117.188;2023-01-30T07:07:06;99325.09;;;9.17;100.00
37848;BME280;23688;33.130;-117.188;2023-01-30T07:09:32;99307.28;;;9.06;100.00
37848;BME280;23688;33.130;-117.188;2023-01-30T07:11:59;99318.75;;;9.11;100.00
37848;BME280;23688;33.130;-117.188;2023-01-30T07:14:25;99328.44;;;9.15;100.00
37848;BME280;23688;33.130;-117.188;2023-01-30T07:16:52;99311.72;;;9.08;100.00
37848;BME280;23688;33.130;-117.188;2023-01-30T07:19:18;99323.91;;;9.11;100.00
37848;BME280;23688;33.130;-117.188;2023-01-30T07:21:44;99329.72;;;9.05;100.00
37848;BME280;23688;33.130;-117.188;2023-01-30T07:24:10;99330.53;;;9.04;100.00
37848;BME280;23688;33.130;-117.188;2023-01-30T07:26:37;99330.59;;;9.06;100.00
37848;BME280;23688;33.130;-117.188;2023-01-30T07:29:03;99320.25;;;9.06;100.00
37848;BME280;23688;33.130;-117.188;2023-01-30T07:31:29;99314.94;;;9.03;100.00
37848;BME280;23688;33.130;-117.188;2023-01-30T07:33:55;99327.47;;;9.13;100.00
37848;BME280;23688;33.130;-117.188;2023-01-30T07:36:21;99327.50;;;9.14;100.00
37848;BME280;23688;33.130;-117.188;2023-01-30T07:38:48;99331.13;;;9.18;100.00
37848;BME280;23688;33.130;-117.188;2023-01-30T07:41:14;99310.34;;;9.16;100.00
37848;BME280;23688;33.130;-117.188;2023-01-30T07:43:41;99321.19;;;9.27;100.00
37848;BME280;23688;33.130;-117.188;2023-01-30T07:46:07;99309.75;;;9.22;100.00
37848;BME280;23688;33.130;-117.188;2023-01-30T07:48:34;99325.88;;;9.36;100.00
37848;BME280;23688;33.130;-117.188;2023-01-30T07:51:01;99311.16;;;9.35;100.00
37848;BME280;23688;33.130;-117.188;2023-01-30T07:53:28;99319.03;;;9.38;100.00
37848;BME280;23688;33.130;-117.188;2023-01-30T07:55:54;99324.31;;;9.39;100.00
37848;BME280;23688;33.130;-117.188;2023-01-30T07:58:20;99312.88;;;9.34;100.00
37848;BME280;23688;33.130;-117.188;2023-01-30T08:00:47;99321.22;;;9.48;100.00
37848;BME280;23688;33.130;-117.188;2023-01-30T08:03:15;99326.59;;;9.53;100.00
37848;BME280;23688;33.130;-117.188;2023-01-30T08:05:41;99315.97;;;9.47;100.00
37848;BME280;23688;33.130;-117.188;2023-01-30T08:08:09;99325.91;;;9.57;100.00
37848;BME280;23688;33.130;-117.188;2023-01-30T08:10:35;99320.59;;;9.54;100.00
37848;BME280;23688;33.130;-117.188;2023-01-30T08:13:01;99328.69;;;9.61;100.00
37848;BME280;23688;33.130;-117.188;2023-01-30T08:15:27;99318.13;;;9.57;100.00
37848;BME280;23688;33.130;-117.188;2023-01-30T08:17:57;99341.78;;;9.64;100.00
37848;BME280;23688;33.130;-117.188;2023-01-30T08:20:26;99311.88;;;9.52;100.00
37848;BME280;23688;33.130;-117.188;2023-01-30T08:22:53;99331.97;;;9.57;100.00
37848;BME280;23688;33.130;-117.188;2023-01-30T08:25:20;99323.31;;;9.57;100.00
37848;BME280;23688;33.130;-117.188;2023-01-30T08:27:47;99342.66;;;9.65;100.00
37848;BME280;23688;33.130;-117.188;2023-01-30T08:30:13;99319.69;;;9.53;100.00
37848;BME280;23688;33.130;-117.188;2023-01-30T08:32:39;99339.19;;;9.64;100.00
37848;BME280;23688;33.130;-117.188;2023-01-30T08:35:06;99338.19;;;9.61;100.00
37848;BME280;23688;33.130;-117.188;2023-01-30T08:37:33;99338.19;;;9.61;100.00
37848;BME280;23688;33.130;-117.188;2023-01-30T08:39:59;99339.94;;;9.62;100.00
37848;BME280;23688;33.130;-117.188;2023-01-30T08:42:25;99330.97;;;9.54;100.00
37848;BME280;23688;33.130;-117.188;2023-01-30T08:44:51;99339.66;;;9.56;100.00
37848;BME280;23688;33.130;-117.188;2023-01-30T08:47:18;99317.06;;;9.52;100.00
37848;BME280;23688;33.130;-117.188;2023-01-30T08:49:44;99331.28;;;9.61;100.00
37848;BME280;23688;33.130;-117.188;2023-01-30T08:52:12;99323.44;;;9.60;100.00
37848;BME280;23688;33.130;-117.188;2023-01-30T08:54:38;99334.13;;;9.68;100.00
37848;BME280;23688;33.130;-117.188;2023-01-30T08:57:04;99328.06;;;9.67;100.00
37848;BME280;23688;33.130;-117.188;2023-01-30T08:59:30;99324.47;;;9.63;100.00
37848;BME280;23688;33.130;-117.188;2023-01-30T09:01:57;99325.28;;;9.62;100.00
37848;BME280;23688;33.130;-117.188;2023-01-30T09:04:23;99335.91;;;9.69;100.00
37848;BME280;23688;33.130;-117.188;2023-01-30T09:06:51;99336.03;;;9.72;100.00
37848;BME280;23688;33.130;-117.188;2023-01-30T09:09:17;99333.38;;;9.70;100.00
37848;BME280;23688;33.130;-117.188;2023-01-30T09:11:43;99324.47;;;9.63;100.00
37848;BME280;23688;33.130;-117.188;2023-01-30T09:14:16;99334.88;;;9.65;100.00
37848;BME280;23688;33.130;-117.188;2023-01-30T09:16:48;99336.41;;;9.60;100.00
37848;BME280;23688;33.130;-117.188;2023-01-30T09:19:27;99327.94;;;9.64;100.00
37848;BME280;23688;33.130;-117.188;2023-01-30T09:21:54;99316.81;;;9.67;100.00
37848;BME280;23688;33.130;-117.188;2023-01-30T09:24:21;99325.78;;;9.75;100.00
37848;BME280;23688;33.130;-117.188;2023-01-30T09:26:52;99316.19;;;9.72;100.00
37848;BME280;23688;33.130;-117.188;2023-01-30T09:29:19;99312.97;;;9.78;100.00
37848;BME280;23688;33.130;-117.188;2023-01-30T09:31:45;99312.13;;;9.79;100.00
37848;BME280;23688;33.130;-117.188;2023-01-30T09:34:11;99322.59;;;9.80;100.00
37848;BME280;23688;33.130;-117.188;2023-01-30T09:36:38;99317.25;;;9.77;100.00
37848;BME280;23688;33.130;-117.188;2023-01-30T09:39:05;99311.88;;;9.73;100.00
37848;BME280;23688;33.130;-117.188;2023-01-30T09:45:17;99306.19;;;9.81;100.00
37848;BME280;23688;33.130;-117.188;2023-01-30T09:47:58;99313.91;;;9.80;100.00
37848;BME280;23688;33.130;-117.188;2023-01-30T09:50:45;99306.84;;;9.76;100.00
37848;BME280;23688;33.130;-117.188;2023-01-30T09:55:57;99293.59;;;9.70;100.00
37848;BME280;23688;33.130;-117.188;2023-01-30T09:58:30;99290.13;;;9.69;100.00
37848;BME280;23688;33.130;-117.188;2023-01-30T10:01:06;99289.25;;;9.69;100.00
37848;BME280;23688;33.130;-117.188;2023-01-30T10:03:42;99284.13;;;9.70;100.00
37848;BME280;23688;33.130;-117.188;2023-01-30T10:06:14;99298.22;;;9.77;100.00
37848;BME280;23688;33.130;-117.188;2023-01-30T10:20:15;99311.81;;;9.50;100.00
37848;BME280;23688;33.130;-117.188;2023-01-30T10:23:16;99290.56;;;9.38;100.00
37848;BME280;23688;33.130;-117.188;2023-01-30T10:25:49;99308.06;;;9.43;100.00
37848;BME280;23688;33.130;-117.188;2023-01-30T10:30:50;99296.41;;;9.34;100.00
37848;BME280;23688;33.130;-117.188;2023-01-30T10:33:55;99301.13;;;9.42;100.00
37848;BME280;23688;33.130;-117.188;2023-01-30T10:36:50;99293.09;;;9.36;100.00
37848;BME280;23688;33.130;-117.188;2023-01-30T10:42:18;99297.44;;;9.37;100.00
37848;BME280;23688;33.130;-117.188;2023-01-30T10:44:47;99304.34;;;9.37;100.00
37848;BME280;23688;33.130;-117.188;2023-01-30T10:50:01;99291.38;;;9.37;100.00
37848;BME280;23688;33.130;-117.188;2023-01-30T10:52:48;99290.34;;;9.33;100.00
37848;BME280;23688;33.130;-117.188;2023-01-30T11:01:05;99300.66;;;9.32;100.00
37848;BME280;23688;33.130;-117.188;2023-01-30T11:03:49;99300.66;;;9.32;100.00
37848;BME280;23688;33.130;-117.188;2023-01-30T11:06:22;99292.69;;;9.27;100.00
37848;BME280;23688;33.130;-117.188;2023-01-30T11:08:49;99285.53;;;9.21;100.00
37848;BME280;23688;33.130;-117.188;2023-01-30T11:11:56;99293.50;;;9.26;100.00
37848;BME280;23688;33.130;-117.188;2023-01-30T11:14:24;99293.50;;;9.26;100.00
37848;BME280;23688;33.130;-117.188;2023-01-30T11:16:55;99282.69;;;9.15;100.00
37848;BME280;23688;33.130;-117.188;2023-01-30T11:19:31;99306.41;;;9.25;100.00
37848;BME280;23688;33.130;-117.188;2023-01-30T11:22:03;99292.91;;;9.12;100.00
37848;BME280;23688;33.130;-117.188;2023-01-30T11:24:41;99288.63;;;9.13;100.00
37848;BME280;23688;33.130;-117.188;2023-01-30T11:29:45;99285.81;;;9.08;100.00
37848;BME280;23688;33.130;-117.188;2023-01-30T11:32:24;99299.78;;;9.12;100.00
37848;BME280;23688;33.130;-117.188;2023-01-30T11:35:02;99294.81;;;9.16;100.00
37848;BME280;23688;33.130;-117.188;2023-01-30T11:37:32;99303.28;;;9.12;100.00
37848;BME280;23688;33.130;-117.188;2023-01-30T11:40:25;99297.91;;;9.08;100.00
37848;BME280;23688;33.130;-117.188;2023-01-30T11:43:00;99295.19;;;9.05;100.00
37848;BME280;23688;33.130;-117.188;2023-01-30T11:45:27;99302.00;;;9.03;100.00
37848;BME280;23688;33.130;-117.188;2023-01-30T11:48:04;99302.00;;;9.03;100.00
37848;BME280;23688;33.130;-117.188;2023-01-30T11:50:46;99302.66;;;8.98;100.00
37848;BME280;23688;33.130;-117.188;2023-01-30T11:53:26;99286.13;;;8.95;100.00
37848;BME280;23688;33.130;-117.188;2023-01-30T11:55:57;99283.44;;;8.93;100.00
37848;BME280;23688;33.130;-117.188;2023-01-30T11:58:29;99288.00;;;8.99;100.00
37848;BME280;23688;33.130;-117.188;2023-01-30T12:00:57;99273.84;;;8.91;100.00
37848;BME280;23688;33.130;-117.188;2023-01-30T12:03:26;99284.41;;;8.95;100.00
37848;BME280;23688;33.130;-117.188;2023-01-30T12:05:54;99282.56;;;8.93;100.00
37848;BME280;23688;33.130;-117.188;2023-01-30T12:08:32;99268.38;;;8.85;100.00
37848;BME280;23688;33.130;-117.188;2023-01-30T12:11:02;99282.94;;;9.02;100.00
37848;BME280;23688;33.130;-117.188;2023-01-30T12:13:36;99275.25;;;9.04;100.00
37848;BME280;23688;33.130;-117.188;2023-01-30T12:19:01;99271.16;;;9.09;100.00
37848;BME280;23688;33.130;-117.188;2023-01-30T12:21:50;99270.38;;;9.10;100.00
37848;BME280;23688;33.130;-117.188;2023-01-30T12:24:24;99272.03;;;9.09;100.00
37848;BME280;23688;33.130;-117.188;2023-01-30T12:29:56;99264.16;;;9.06;100.00
37848;BME280;23688;33.130;-117.188;2023-01-30T12:32:29;99264.78;;;9.00;100.00
37848;BME280;23688;33.130;-117.188;2023-01-30T12:34:55;99259.66;;;9.02;100.00
37848;BME280;23688;33.130;-117.188;2023-01-30T12:43:18;99275.66;;;9.13;100.00
37848;BME280;23688;33.130;-117.188;2023-01-30T12:46:20;99281.81;;;9.15;100.00
37848;BME280;23688;33.130;-117.188;2023-01-30T12:51:53;99299.94;;;9.15;100.00
37848;BME280;23688;33.130;-117.188;2023-01-30T12:54:34;99293.13;;;9.17;100.00
37848;BME280;23688;33.130;-117.188;2023-01-30T12:57:10;99302.56;;;9.16;100.00
37848;BME280;23688;33.130;-117.188;2023-01-30T13:02:57;99277.97;;;9.07;100.00
37848;BME280;23688;33.130;-117.188;2023-01-30T13:08:51;99289.28;;;9.09;100.00
37848;BME280;23688;33.130;-117.188;2023-01-30T13:11:44;99292.91;;;9.12;100.00
37848;BME280;23688;33.130;-117.188;2023-01-30T13:14:24;99286.66;;;9.07;100.00
37848;BME280;23688;33.130;-117.188;2023-01-30T13:17:09;99296.50;;;9.16;100.00
37848;BME280;23688;33.130;-117.188;2023-01-30T13:22:23;99286.66;;;9.07;100.00
37848;BME280;23688;33.130;-117.188;2023-01-30T13:27:22;99296.50;;;9.16;100.00
37848;BME280;23688;33.130;-117.188;2023-01-30T13:29:50;99292.97;;;9.14;100.00
37848;BME280;23688;33.130;-117.188;2023-01-30T13:32:32;99300.72;;;9.14;100.00
37848;BME280;23688;33.130;-117.188;2023-01-30T13:35:01;99292.97;;;9.14;100.00
37848;BME280;23688;33.130;-117.188;2023-01-30T13:37:30;99298.97;;;9.13;100.00
37848;BME280;23688;33.130;-117.188;2023-01-30T13:40:03;99304.16;;;9.13;100.00
37848;BME280;23688;33.130;-117.188;2023-01-30T13:42:40;99298.03;;;9.11;100.00
37848;BME280;23688;33.130;-117.188;2023-01-30T13:45:33;99292.59;;;9.05;100.00
37848;BME280;23688;33.130;-117.188;2023-01-30T13:53:48;99309.34;;;9.13;100.00
37848;BME280;23688;33.130;-117.188;2023-01-30T14:09:50;99308.59;;;9.15;100.00
37848;BME280;23688;33.130;-117.188;2023-01-30T14:12:31;99303.19;;;9.11;100.00
37848;BME280;23688;33.130;-117.188;2023-01-30T14:15:14;99290.13;;;9.08;100.00
37848;BME280;23688;33.130;-117.188;2023-01-30T14:18:05;99296.19;;;9.08;100.00
37848;BME280;23688;33.130;-117.188;2023-01-30T14:20:49;99306.34;;;9.04;100.00
37848;BME280;23688;33.130;-117.188;2023-01-30T14:23:33;99295.56;;;8.94;100.00
37848;BME280;23688;33.130;-117.188;2023-01-30T14:26:01;99304.16;;;8.93;100.00
37848;BME280;23688;33.130;-117.188;2023-01-30T14:30:58;99315.81;;;9.03;100.00
37848;BME280;23688;33.130;-117.188;2023-01-30T14:38:25;99324.34;;;9.00;100.00
37848;BME280;23688;33.130;-117.188;2023-01-30T14:51:24;99339.75;;;8.97;100.00
37848;BME280;23688;33.130;-117.188;2023-01-30T15:02:18;99329.97;;;9.11;100.00
37848;BME280;23688;33.130;-117.188;2023-01-30T15:15:44;99336.88;;;9.11;100.00
37848;BME280;23688;33.130;-117.188;2023-01-30T15:27:29;99339.38;;;9.09;100.00